Time;durP1;ratioP1;P1;durP2;ratioP2;P2;SDS_P1;SDS_P2;PMS_P1;PMS_P2;Temp;Humidity;BMP_temperature;BMP_pressure;BME280_temperature;BME280_humidity;BME280_pressure;Samples;Min_cycle;Max_cycle;Signal;HPM_P1;HPM_P2
2023/03/15 00:01:54;;;;;;;158.88;115.63;;;;;;;;;;5086027;28;20308;-77
2023/03/15 00:04:20;;;;;;;142.85;106.03;;;;;;;;;;5095656;28;20371;-76
2023/03/15 00:06:45;;;;;;;184.23;131.32;;;;;;;;;;5096194;28;20181;-74
2023/03/15 00:09:10;;;;;;;165.90;110.40;;;;;;;;;;5096011;28;20465;-72
2023/03/15 00:11:36;;;;;;;103.55;74.10;;;;;;;;;;5090911;28;21263;-74
2023/03/15 00:14:01;;;;;;;88.65;65.68;;;;;;;;;;5088012;28;20458;-74
2023/03/15 00:16:26;;;;;;;92.68;63.53;;;;;;;;;;5088279;28;20039;-73
2023/03/15 00:18:55;;;;;;;70.72;49.15;;;;;;;;;;5090242;28;20031;-74
2023/03/15 00:21:20;;;;;;;51.25;40.50;;;;;;;;;;5096466;28;20447;-73
2023/03/15 00:23:46;;;;;;;46.38;37.00;;;;;;;;;;5097442;28;20030;-74
2023/03/15 00:26:12;;;;;;;49.42;40.25;;;;;;;;;;5088807;28;20027;-72
2023/03/15 00:28:37;;;;;;;53.53;42.13;;;;;;;;;;5090486;28;20038;-73
2023/03/15 00:31:04;;;;;;;55.47;45.10;;;;;;;;;;5085591;27;20024;-73
2023/03/15 00:33:33;;;;;;;71.63;53.42;;;;;;;;;;5097642;28;20350;-76
2023/03/15 00:36:01;;;;;;;89.07;64.93;;;;;;;;;;5095536;28;20062;-73
2023/03/15 00:38:26;;;;;;;88.68;64.50;;;;;;;;;;5089684;28;20523;-73
2023/03/15 00:40:51;;;;;;;89.90;65.70;;;;;;;;;;5125535;27;20036;-73
2023/03/15 00:43:16;;;;;;;70.57;52.05;;;;;;;;;;5094367;28;20028;-75
2023/03/15 00:45:44;;;;;;;75.82;55.17;;;;;;;;;;5087175;28;20114;-72
2023/03/15 00:48:09;;;;;;;82.35;61.47;;;;;;;;;;5096457;28;20020;-73
2023/03/15 00:50:34;;;;;;;124.03;90.18;;;;;;;;;;5086452;28;20339;-73
2023/03/15 00:53:00;;;;;;;140.60;102.22;;;;;;;;;;5095109;28;20035;-77
2023/03/15 00:55:25;;;;;;;141.63;101.80;;;;;;;;;;5096784;28;20022;-75
2023/03/15 00:57:51;;;;;;;111.63;85.22;;;;;;;;;;5087083;28;20047;-74
2023/03/15 01:00:22;;;;;;;72.93;55.28;;;;;;;;;;5090502;28;20044;-73
2023/03/15 01:02:48;;;;;;;98.35;69.22;;;;;;;;;;5092393;28;20031;-73
2023/03/15 01:05:13;;;;;;;141.98;100.57;;;;;;;;;;5097024;28;20046;-73
2023/03/15 01:07:38;;;;;;;184.02;119.43;;;;;;;;;;5095368;28;20051;-72
2023/03/15 01:10:04;;;;;;;145.77;101.50;;;;;;;;;;5096429;28;20024;-73
2023/03/15 01:12:33;;;;;;;122.18;87.10;;;;;;;;;;5095311;28;20107;-74
2023/03/15 01:14:59;;;;;;;104.80;75.93;;;;;;;;;;5095823;28;20092;-73
2023/03/15 01:17:24;;;;;;;80.40;58.88;;;;;;;;;;5095574;28;20431;-73
2023/03/15 01:19:50;;;;;;;77.88;55.08;;;;;;;;;;5087838;28;20442;-75
2023/03/15 01:22:16;;;;;;;79.25;58.08;;;;;;;;;;5097116;28;20099;-76
2023/03/15 01:24:41;;;;;;;88.50;63.55;;;;;;;;;;5095650;28;20415;-73
2023/03/15 01:27:06;;;;;;;106.53;80.72;;;;;;;;;;5090310;28;20469;-73
2023/03/15 01:29:32;;;;;;;111.97;79.05;;;;;;;;;;5082532;28;20053;-72
2023/03/15 01:31:59;;;;;;;100.63;72.70;;;;;;;;;;5084613;28;20035;-73
2023/03/15 01:34:25;;;;;;;95.00;69.95;;;;;;;;;;5086010;28;20042;-77
2023/03/15 01:36:53;;;;;;;102.70;76.57;;;;;;;;;;5084901;28;20434;-77
2023/03/15 01:39:19;;;;;;;87.87;65.90;;;;;;;;;;5084607;28;20523;-73
2023/03/15 01:41:44;;;;;;;100.85;73.63;;;;;;;;;;5089953;28;20031;-73
2023/03/15 01:44:13;;;;;;;104.20;79.47;;;;;;;;;;5095797;28;20031;-73
2023/03/15 01:46:40;;;;;;;99.03;75.45;;;;;;;;;;5088085;28;20366;-72
2023/03/15 01:49:14;;;;;;;109.53;82.97;;;;;;;;;;5096637;28;20027;-73
2023/03/15 01:51:50;;;;;;;102.40;80.28;;;;;;;;;;5085081;28;20469;-73
2023/03/15 01:54:28;;;;;;;101.97;78.93;;;;;;;;;;5093966;28;20139;-77
2023/03/15 01:57:05;;;;;;;92.38;78.72;;;;;;;;;;5088268;28;20028;-73
2023/03/15 01:59:32;;;;;;;97.30;72.55;;;;;;;;;;5084101;28;20111;-74
2023/03/15 02:01:57;;;;;;;62.42;49.53;;;;;;;;;;5095730;28;20034;-73
2023/03/15 02:04:27;;;;;;;71.90;58.22;;;;;;;;;;5086224;28;20106;-77
2023/03/15 02:06:58;;;;;;;;;;;;;;;;;;5092197;28;20077;-73
2023/03/15 02:09:26;;;;;;;57.53;43.20;;;;;;;;;;5089865;28;19912;-73
2023/03/15 02:11:51;;;;;;;54.80;40.63;;;;;;;;;;5097066;28;20027;-74
2023/03/15 02:14:17;;;;;;;52.13;39.25;;;;;;;;;;5093709;28;20054;-73
2023/03/15 02:16:43;;;;;;;49.08;38.00;;;;;;;;;;5088630;28;20051;-73
2023/03/15 02:19:17;;;;;;;66.03;53.33;;;;;;;;;;5093262;28;20147;-73
2023/03/15 02:21:51;;;;;;;61.85;49.90;;;;;;;;;;5088050;28;20358;-73
2023/03/15 02:24:16;;;;;;;45.72;39.03;;;;;;;;;;5088728;28;20078;-72
2023/03/15 02:26:48;;;;;;;48.92;39.45;;;;;;;;;;5088019;28;20431;-75
2023/03/15 02:29:14;;;;;;;42.28;35.45;;;;;;;;;;5092924;28;20027;-74
2023/03/15 02:31:40;;;;;;;34.83;29.55;;;;;;;;;;5088205;28;20073;-73
2023/03/15 02:34:06;;;;;;;45.15;35.88;;;;;;;;;;5095669;28;20034;-73
2023/03/15 02:36:32;;;;;;;43.55;35.78;;;;;;;;;;5095618;28;20124;-75
2023/03/15 02:38:57;;;;;;;48.30;37.97;;;;;;;;;;5094117;28;20106;-72
2023/03/15 02:41:32;;;;;;;63.72;45.58;;;;;;;;;;5085858;28;20023;-71
2023/03/15 02:44:08;;;;;;;56.72;43.20;;;;;;;;;;5093507;28;20035;-72
2023/03/15 02:46:34;;;;;;;62.42;46.72;;;;;;;;;;5087475;28;20072;-75
2023/03/15 02:49:00;;;;;;;76.35;60.45;;;;;;;;;;5091186;28;20375;-72
2023/03/15 02:51:26;;;;;;;119.90;88.15;;;;;;;;;;5096003;28;20124;-74
2023/03/15 02:53:52;;;;;;;79.28;59.95;;;;;;;;;;5092477;28;20035;-76
2023/03/15 02:56:17;;;;;;;75.63;57.90;;;;;;;;;;5084672;28;20040;-73
2023/03/15 02:58:45;;;;;;;75.20;60.55;;;;;;;;;;5084099;28;20034;-73
2023/03/15 03:01:14;;;;;;;67.63;55.72;;;;;;;;;;5080221;28;20028;-73
2023/03/15 03:03:43;;;;;;;63.90;52.85;;;;;;;;;;5081841;28;20043;-72
2023/03/15 03:06:09;;;;;;;48.58;40.83;;;;;;;;;;5083922;28;20051;-79
2023/03/15 03:08:35;;;;;;;48.30;41.95;;;;;;;;;;5093937;28;20090;-72
2023/03/15 03:11:00;;;;;;;49.10;41.22;;;;;;;;;;5094930;28;20027;-72
2023/03/15 03:13:26;;;;;;;52.58;44.42;;;;;;;;;;5095200;28;20026;-75
2023/03/15 03:15:57;;;;;;;75.03;55.70;;;;;;;;;;5083509;28;20134;-74
2023/03/15 03:18:27;;;;;;;62.03;48.83;;;;;;;;;;5087988;28;20016;-73
2023/03/15 03:20:52;;;;;;;;;;;;;;;;;;5087173;28;20362;-73
2023/03/15 03:23:17;;;;;;;52.28;45.35;;;;;;;;;;5094770;28;19948;-74
2023/03/15 03:25:44;;;;;;;60.70;49.92;;;;;;;;;;5089287;28;20035;-73
2023/03/15 03:28:09;;;;;;;71.13;58.03;;;;;;;;;;5091103;28;20703;-78
2023/03/15 03:30:35;;;;;;;73.60;57.85;;;;;;;;;;5094952;28;20036;-75
2023/03/15 03:33:00;;;;;;;117.68;86.20;;;;;;;;;;5099423;28;20515;-73
2023/03/15 03:35:25;;;;;;;112.45;86.57;;;;;;;;;;5096630;28;20046;-73
2023/03/15 03:37:52;;;;;;;88.75;69.38;;;;;;;;;;5096057;28;20027;-72
2023/03/15 03:40:17;;;;;;;80.43;63.72;;;;;;;;;;5099484;28;20039;-72
2023/03/15 03:42:46;;;;;;;81.03;64.65;;;;;;;;;;5098032;28;20020;-73
2023/03/15 03:45:11;;;;;;;83.63;66.70;;;;;;;;;;5091905;28;20051;-73
2023/03/15 03:47:36;;;;;;;90.78;70.15;;;;;;;;;;5086780;28;20066;-76
2023/03/15 03:50:01;;;;;;;87.82;70.35;;;;;;;;;;5095480;28;20036;-72
2023/03/15 03:52:27;;;;;;;93.15;77.28;;;;;;;;;;5097275;28;20043;-73
2023/03/15 03:54:52;;;;;;;98.43;77.43;;;;;;;;;;5098438;28;20088;-73
2023/03/15 03:57:17;;;;;;;102.10;80.78;;;;;;;;;;5096985;28;20042;-77
2023/03/15 03:59:43;;;;;;;112.32;90.50;;;;;;;;;;5098223;28;20035;-75
2023/03/15 04:02:08;;;;;;;108.03;90.63;;;;;;;;;;5097922;28;20060;-74
2023/03/15 04:04:33;;;;;;;110.45;93.68;;;;;;;;;;5095369;28;20059;-77
2023/03/15 04:06:59;;;;;;;107.00;86.93;;;;;;;;;;5095559;28;20076;-75
2023/03/15 04:09:24;;;;;;;104.20;88.05;;;;;;;;;;5096697;28;20062;-73
2023/03/15 04:11:49;;;;;;;104.53;82.88;;;;;;;;;;5097432;28;20122;-72
2023/03/15 04:14:15;;;;;;;95.07;77.80;;;;;;;;;;5095072;28;20042;-72
2023/03/15 04:16:40;;;;;;;94.55;78.65;;;;;;;;;;5097022;27;20472;-74
2023/03/15 04:19:06;;;;;;;86.07;73.15;;;;;;;;;;5096920;28;20466;-72
2023/03/15 04:21:31;;;;;;;102.05;83.18;;;;;;;;;;5092579;28;20094;-72
2023/03/15 04:24:00;;;;;;;92.03;73.00;;;;;;;;;;5093028;28;20015;-74
2023/03/15 04:26:26;;;;;;;78.57;67.45;;;;;;;;;;5095086;28;20052;-73
2023/03/15 04:28:53;;;;;;;82.25;64.40;;;;;;;;;;5096572;28;20059;-74
2023/03/15 04:31:18;;;;;;;78.18;62.08;;;;;;;;;;5087816;28;20045;-73
2023/03/15 04:33:43;;;;;;;95.07;76.68;;;;;;;;;;5096299;28;20039;-77
2023/03/15 04:36:16;;;;;;;104.45;85.55;;;;;;;;;;5096838;28;20031;-74
2023/03/15 04:38:45;;;;;;;116.18;89.80;;;;;;;;;;5093860;28;20115;-75
2023/03/15 04:41:10;;;;;;;140.98;99.95;;;;;;;;;;5095416;28;20027;-78
2023/03/15 04:43:36;;;;;;;110.30;84.72;;;;;;;;;;5091187;28;20034;-73
2023/03/15 04:46:01;;;;;;;111.15;87.65;;;;;;;;;;5081627;28;20032;-73
2023/03/15 04:48:26;;;;;;;106.32;85.00;;;;;;;;;;5082078;28;20037;-72
2023/03/15 04:50:51;;;;;;;122.95;94.28;;;;;;;;;;5083222;28;20039;-72
2023/03/15 04:53:17;;;;;;;110.72;86.57;;;;;;;;;;5082619;28;20054;-73
2023/03/15 04:55:42;;;;;;;102.78;81.85;;;;;;;;;;5083585;28;20107;-73
2023/03/15 04:58:07;;;;;;;106.35;84.82;;;;;;;;;;5086083;28;20115;-73
2023/03/15 05:00:33;;;;;;;102.90;80.30;;;;;;;;;;5085765;28;20041;-73
2023/03/15 05:02:58;;;;;;;96.20;75.38;;;;;;;;;;5089670;28;20034;-73
2023/03/15 05:05:23;;;;;;;117.03;91.63;;;;;;;;;;5096100;28;20056;-76
2023/03/15 05:07:49;;;;;;;160.80;120.15;;;;;;;;;;5090632;28;20048;-73
2023/03/15 05:10:14;;;;;;;121.25;96.95;;;;;;;;;;5092757;28;20072;-73
2023/03/15 05:12:40;;;;;;;119.38;92.18;;;;;;;;;;5095223;28;20032;-72
2023/03/15 05:15:05;;;;;;;128.10;100.40;;;;;;;;;;5085684;28;20058;-73
2023/03/15 05:17:32;;;;;;;119.43;93.25;;;;;;;;;;5089988;28;20035;-72
2023/03/15 05:20:00;;;;;;;121.10;94.32;;;;;;;;;;5087767;28;20384;-77
2023/03/15 05:22:26;;;;;;;110.63;88.25;;;;;;;;;;5086565;28;20033;-73
2023/03/15 05:24:52;;;;;;;90.80;73.97;;;;;;;;;;5093773;28;20024;-73
2023/03/15 05:27:18;;;;;;;99.13;76.18;;;;;;;;;;5094737;28;20119;-76
2023/03/15 05:29:44;;;;;;;98.65;77.43;;;;;;;;;;5079773;28;20106;-75
2023/03/15 05:32:09;;;;;;;98.15;81.78;;;;;;;;;;5087550;28;20023;-75
2023/03/15 05:34:35;;;;;;;193.38;132.85;;;;;;;;;;5086703;28;20084;-75
2023/03/15 05:37:00;;;;;;;132.07;97.40;;;;;;;;;;5086934;28;20024;-72
2023/03/15 05:39:25;;;;;;;153.68;122.68;;;;;;;;;;5083069;28;20560;-73
2023/03/15 05:41:51;;;;;;;173.52;131.38;;;;;;;;;;5095994;28;20026;-74
2023/03/15 05:44:16;;;;;;;169.27;128.75;;;;;;;;;;5093422;28;20118;-73
2023/03/15 05:46:41;;;;;;;154.52;121.55;;;;;;;;;;5094822;28;20038;-73
2023/03/15 05:49:07;;;;;;;148.73;115.40;;;;;;;;;;5097554;27;20371;-74
2023/03/15 05:51:32;;;;;;;142.75;113.40;;;;;;;;;;5094591;27;20039;-74
2023/03/15 05:53:58;;;;;;;159.77;125.05;;;;;;;;;;5084530;28;20640;-76
2023/03/15 05:56:23;;;;;;;139.70;109.72;;;;;;;;;;5085557;28;20059;-74
2023/03/15 05:58:48;;;;;;;120.10;98.93;;;;;;;;;;5093476;28;20024;-77
2023/03/15 06:01:14;;;;;;;171.07;137.30;;;;;;;;;;5092373;28;20032;-74
2023/03/15 06:03:39;;;;;;;135.30;112.18;;;;;;;;;;5093022;28;20032;-72
2023/03/15 06:06:04;;;;;;;101.15;82.43;;;;;;;;;;5086295;28;20083;-73
2023/03/15 06:08:30;;;;;;;122.13;89.38;;;;;;;;;;5093989;28;20437;-72
2023/03/15 06:10:55;;;;;;;137.98;102.45;;;;;;;;;;5094498;28;20032;-73
2023/03/15 06:13:20;;;;;;;98.38;79.78;;;;;;;;;;5093156;28;20089;-73
2023/03/15 06:15:46;;;;;;;70.47;57.20;;;;;;;;;;5087504;28;20774;-74
2023/03/15 06:18:12;;;;;;;95.80;72.53;;;;;;;;;;5126553;27;20024;-73
2023/03/15 06:20:38;;;;;;;119.50;93.82;;;;;;;;;;5093439;28;20039;-75
2023/03/15 06:23:03;;;;;;;153.55;124.43;;;;;;;;;;5095373;28;20039;-73
2023/03/15 06:25:29;;;;;;;139.38;114.88;;;;;;;;;;5095170;28;20442;-75
2023/03/15 06:27:55;;;;;;;123.93;104.40;;;;;;;;;;5093111;28;20132;-74
2023/03/15 06:30:20;;;;;;;123.57;104.10;;;;;;;;;;5084516;28;20461;-76
2023/03/15 06:32:45;;;;;;;124.10;103.43;;;;;;;;;;5087507;28;20042;-77
2023/03/15 06:35:11;;;;;;;130.80;98.00;;;;;;;;;;5089117;28;20043;-75
2023/03/15 06:37:36;;;;;;;135.82;99.45;;;;;;;;;;5095746;28;20447;-74
2023/03/15 06:40:08;;;;;;;237.13;179.68;;;;;;;;;;5092021;28;20050;-74
2023/03/15 06:42:34;;;;;;;130.70;107.35;;;;;;;;;;5097774;28;20031;-73
2023/03/15 06:45:00;;;;;;;114.88;90.72;;;;;;;;;;5093031;28;20024;-72
2023/03/15 06:47:25;;;;;;;48.83;39.60;;;;;;;;;;5095362;28;20031;-73
2023/03/15 06:49:50;;;;;;;42.88;33.22;;;;;;;;;;5089510;28;20110;-74
2023/03/15 06:52:16;;;;;;;45.22;38.63;;;;;;;;;;5093401;28;20118;-74
2023/03/15 06:54:42;;;;;;;39.50;32.30;;;;;;;;;;5096466;28;20024;-75
2023/03/15 06:57:07;;;;;;;45.45;39.13;;;;;;;;;;5093795;28;20035;-76
2023/03/15 06:59:32;;;;;;;35.30;31.50;;;;;;;;;;5092801;28;20062;-77
2023/03/15 07:01:58;;;;;;;76.57;68.97;;;;;;;;;;5097449;28;20496;-75
2023/03/15 07:04:23;;;;;;;75.88;67.60;;;;;;;;;;5087467;28;20036;-75
2023/03/15 07:06:48;;;;;;;126.15;83.57;;;;;;;;;;5096717;28;20048;-75
2023/03/15 07:09:13;;;;;;;125.05;87.25;;;;;;;;;;5098191;28;20028;-74
2023/03/15 07:11:39;;;;;;;96.50;80.47;;;;;;;;;;5097395;28;20873;-75
2023/03/15 07:14:04;;;;;;;86.20;71.85;;;;;;;;;;5089949;28;20410;-75
2023/03/15 07:16:30;;;;;;;57.00;50.75;;;;;;;;;;5098984;28;20119;-79
2023/03/15 07:18:58;;;;;;;44.85;39.67;;;;;;;;;;5097018;28;20039;-76
2023/03/15 07:21:23;;;;;;;48.97;43.80;;;;;;;;;;5097622;28;20028;-76
2023/03/15 07:23:48;;;;;;;55.90;45.30;;;;;;;;;;5097673;28;20089;-76
2023/03/15 07:26:14;;;;;;;52.75;39.20;;;;;;;;;;5096784;28;20114;-76
2023/03/15 07:28:39;;;;;;;38.25;31.63;;;;;;;;;;5097877;28;20058;-76
2023/03/15 07:31:05;;;;;;;60.90;49.88;;;;;;;;;;5093898;28;20023;-78
2023/03/15 07:33:31;;;;;;;63.22;56.30;;;;;;;;;;5082986;28;20027;-75
2023/03/15 07:35:57;;;;;;;47.10;40.33;;;;;;;;;;5083711;28;20069;-76
2023/03/15 07:38:23;;;;;;;37.45;30.27;;;;;;;;;;5084607;28;20027;-75
2023/03/15 07:40:49;;;;;;;46.03;39.22;;;;;;;;;;5086276;27;20183;-75
2023/03/15 07:43:14;;;;;;;41.17;34.42;;;;;;;;;;5086234;28;20032;-76
2023/03/15 07:45:39;;;;;;;59.50;45.05;;;;;;;;;;5084124;28;20482;-76
2023/03/15 07:48:05;;;;;;;51.80;45.42;;;;;;;;;;5085928;28;20038;-76
2023/03/15 07:50:31;;;;;;;54.83;41.47;;;;;;;;;;5086821;28;20043;-76
2023/03/15 07:52:56;;;;;;;79.20;61.38;;;;;;;;;;5085299;28;20400;-75
2023/03/15 07:55:21;;;;;;;42.08;35.75;;;;;;;;;;5083821;28;20396;-75
2023/03/15 07:57:46;;;;;;;49.95;39.22;;;;;;;;;;5084710;28;20031;-75
2023/03/15 08:00:12;;;;;;;48.70;35.58;;;;;;;;;;5084360;28;20084;-76
2023/03/15 08:02:38;;;;;;;40.22;31.48;;;;;;;;;;5083035;28;20099;-76
2023/03/15 08:05:03;;;;;;;71.75;56.17;;;;;;;;;;5082957;28;20446;-77
2023/03/15 08:07:29;;;;;;;38.70;32.10;;;;;;;;;;5082688;28;20075;-76
2023/03/15 08:09:56;;;;;;;41.97;32.80;;;;;;;;;;5082343;28;20028;-77
2023/03/15 08:12:22;;;;;;;47.20;39.30;;;;;;;;;;5080867;28;20049;-76
2023/03/15 08:14:47;;;;;;;47.97;37.90;;;;;;;;;;5081812;28;20020;-75
2023/03/15 08:17:15;;;;;;;61.30;46.75;;;;;;;;;;5081851;28;20597;-74
2023/03/15 08:19:40;;;;;;;61.17;49.72;;;;;;;;;;5080719;28;20039;-76
2023/03/15 08:22:05;;;;;;;101.53;80.20;;;;;;;;;;5081684;28;20451;-77
2023/03/15 08:24:31;;;;;;;405.63;242.73;;;;;;;;;;5081004;28;20051;-77
2023/03/15 08:26:56;;;;;;;140.13;99.63;;;;;;;;;;5082905;28;20446;-77
2023/03/15 08:29:21;;;;;;;104.75;80.35;;;;;;;;;;5082563;28;20031;-76
2023/03/15 08:31:47;;;;;;;103.13;78.32;;;;;;;;;;5084814;28;20120;-77
2023/03/15 08:34:12;;;;;;;101.72;76.88;;;;;;;;;;5081736;28;20654;-75
2023/03/15 08:36:37;;;;;;;68.68;55.85;;;;;;;;;;5083670;28;20023;-75
2023/03/15 08:39:04;;;;;;;70.25;56.22;;;;;;;;;;5086486;27;20443;-76
2023/03/15 08:41:29;;;;;;;72.95;57.13;;;;;;;;;;5084983;28;20046;-79
2023/03/15 08:43:55;;;;;;;62.15;49.05;;;;;;;;;;5085285;28;20023;-76
2023/03/15 08:46:20;;;;;;;63.03;49.22;;;;;;;;;;5085575;28;20065;-78
2023/03/15 08:48:46;;;;;;;75.82;57.05;;;;;;;;;;5082537;28;21135;-76
2023/03/15 08:51:12;;;;;;;66.22;52.25;;;;;;;;;;5085278;28;20028;-76
2023/03/15 08:53:37;;;;;;;73.03;58.67;;;;;;;;;;5084827;28;20625;-76
2023/03/15 08:56:03;;;;;;;151.75;106.13;;;;;;;;;;5085588;28;20053;-77
2023/03/15 08:58:29;;;;;;;128.38;93.95;;;;;;;;;;5086287;28;20484;-78
2023/03/15 09:00:54;;;;;;;73.85;55.88;;;;;;;;;;5086459;28;20071;-78
2023/03/15 09:03:21;;;;;;;88.30;59.63;;;;;;;;;;5083454;28;20023;-77
2023/03/15 09:05:46;;;;;;;56.05;44.95;;;;;;;;;;5082964;28;20397;-77
2023/03/15 09:08:12;;;;;;;67.68;54.83;;;;;;;;;;5086821;28;20024;-76
2023/03/15 09:10:38;;;;;;;130.43;110.10;;;;;;;;;;5084036;28;20028;-76
2023/03/15 09:13:04;;;;;;;158.15;122.97;;;;;;;;;;5084276;28;20019;-76
2023/03/15 09:15:29;;;;;;;166.00;119.15;;;;;;;;;;5085704;28;20112;-76
2023/03/15 09:17:54;;;;;;;159.23;99.80;;;;;;;;;;5084962;28;20053;-78
2023/03/15 09:20:21;;;;;;;367.73;201.73;;;;;;;;;;5084287;28;20040;-77
2023/03/15 09:22:54;;;;;;;142.73;98.28;;;;;;;;;;5083621;28;20052;-76
2023/03/15 09:25:20;;;;;;;93.53;70.55;;;;;;;;;;5083892;28;20144;-79
2023/03/15 09:27:45;;;;;;;68.78;53.83;;;;;;;;;;5084502;28;20106;-77
2023/03/15 09:30:10;;;;;;;68.45;52.92;;;;;;;;;;5084136;28;20107;-79
2023/03/15 09:32:36;;;;;;;106.00;72.45;;;;;;;;;;5084515;28;20389;-76
2023/03/15 09:35:02;;;;;;;41.65;32.40;;;;;;;;;;5086115;28;20039;-76
2023/03/15 09:37:28;;;;;;;72.32;55.38;;;;;;;;;;5084323;28;20327;-76
2023/03/15 09:39:53;;;;;;;38.53;33.92;;;;;;;;;;5084767;28;20039;-75
2023/03/15 09:42:26;;;;;;;40.33;34.38;;;;;;;;;;5083981;28;20031;-77
2023/03/15 09:44:59;;;;;;;39.35;31.63;;;;;;;;;;5083794;28;20031;-77
2023/03/15 09:47:43;;;;;;;48.50;37.97;;;;;;;;;;5085388;28;20047;-77
2023/03/15 09:50:15;;;;;;;28.70;24.20;;;;;;;;;;5084280;28;20042;-75
2023/03/15 09:52:47;;;;;;;29.23;23.58;;;;;;;;;;5094561;28;20114;-76
2023/03/15 09:55:19;;;;;;;30.35;23.92;;;;;;;;;;5087875;28;20031;-76
2023/03/15 09:57:44;;;;;;;36.47;30.55;;;;;;;;;;5084297;28;20035;-75
2023/03/15 10:00:14;;;;;;;42.28;36.30;;;;;;;;;;5083014;28;20051;-75
2023/03/15 10:02:42;;;;;;;42.40;34.28;;;;;;;;;;5084097;28;20034;-77
2023/03/15 10:05:17;;;;;;;154.63;95.20;;;;;;;;;;5084309;28;20142;-76
2023/03/15 10:07:43;;;;;;;89.75;66.22;;;;;;;;;;5084408;28;23112;-76
2023/03/15 10:10:19;;;;;;;44.42;32.60;;;;;;;;;;5084743;28;20069;-76
2023/03/15 10:13:07;;;;;;;26.98;22.40;;;;;;;;;;5084177;28;20023;-75
2023/03/15 10:15:37;;;;;;;65.25;50.17;;;;;;;;;;5089132;28;20054;-76
2023/03/15 10:18:25;;;;;;;138.02;106.25;;;;;;;;;;5096507;28;20489;-76
2023/03/15 10:20:55;;;;;;;193.88;139.90;;;;;;;;;;5095937;28;20038;-77
2023/03/15 10:23:35;;;;;;;26.55;24.02;;;;;;;;;;5097799;28;20035;-77
2023/03/15 10:26:01;;;;;;;11.93;9.60;;;;;;;;;;5095158;28;20036;-76
2023/03/15 10:28:28;;;;;;;15.32;11.93;;;;;;;;;;5094916;28;20020;-76
2023/03/15 10:30:55;;;;;;;22.23;15.13;;;;;;;;;;5096085;28;20059;-77
2023/03/15 10:33:26;;;;;;;10.80;8.43;;;;;;;;;;5083003;28;20031;-77
2023/03/15 10:35:52;;;;;;;9.25;7.68;;;;;;;;;;5078884;28;20055;-75
2023/03/15 10:38:19;;;;;;;19.67;13.48;;;;;;;;;;5081959;28;20112;-75
2023/03/15 10:40:52;;;;;;;14.68;10.35;;;;;;;;;;5081916;28;20514;-76
2023/03/15 10:43:35;;;;;;;11.60;9.15;;;;;;;;;;5084556;28;20050;-76
2023/03/15 10:46:02;;;;;;;20.88;14.32;;;;;;;;;;5082942;28;20114;-75
2023/03/15 10:48:30;;;;;;;20.40;15.00;;;;;;;;;;5083770;28;20470;-77
2023/03/15 10:50:55;;;;;;;17.65;12.45;;;;;;;;;;5083519;28;20055;-76
2023/03/15 10:53:21;;;;;;;30.23;22.75;;;;;;;;;;5084212;28;20078;-75
2023/03/15 10:55:47;;;;;;;21.25;15.40;;;;;;;;;;5083359;28;20047;-75
2023/03/15 10:58:20;;;;;;;6.68;6.03;;;;;;;;;;5083218;28;20030;-74
2023/03/15 11:00:50;;;;;;;9.77;7.95;;;;;;;;;;5082143;28;20084;-74
2023/03/15 11:03:17;;;;;;;9.05;7.85;;;;;;;;;;5083431;28;20038;-74
2023/03/15 11:05:44;;;;;;;14.60;10.65;;;;;;;;;;5084773;28;20034;-76
2023/03/15 11:08:20;;;;;;;11.23;8.43;;;;;;;;;;5083860;28;20040;-77
2023/03/15 11:10:46;;;;;;;9.63;7.35;;;;;;;;;;5082848;28;20038;-77
2023/03/15 11:13:11;;;;;;;11.90;8.35;;;;;;;;;;5083190;28;20438;-76
2023/03/15 11:15:38;;;;;;;8.25;6.05;;;;;;;;;;5082918;28;20034;-75
2023/03/15 11:18:04;;;;;;;7.95;7.15;;;;;;;;;;5083267;28;20059;-76
2023/03/15 11:20:37;;;;;;;9.77;7.55;;;;;;;;;;5083590;28;20070;-76
2023/03/15 11:23:17;;;;;;;9.02;6.82;;;;;;;;;;5081331;28;20020;-75
2023/03/15 11:25:42;;;;;;;;;;;;;;;;;;5083304;28;20438;-78
2023/03/15 11:28:14;;;;;;;6.07;5.35;;;;;;;;;;5084563;28;19923;-77
2023/03/15 11:30:40;;;;;;;6.55;5.70;;;;;;;;;;5081954;28;20035;-77
2023/03/15 11:33:06;;;;;;;9.55;7.50;;;;;;;;;;5084425;28;20323;-76
2023/03/15 11:35:34;;;;;;;13.88;11.85;;;;;;;;;;5084399;28;20341;-76
2023/03/15 11:38:12;;;;;;;6.95;6.15;;;;;;;;;;5081796;28;20032;-76
2023/03/15 11:40:37;;;;;;;8.50;6.07;;;;;;;;;;5083700;28;20036;-77
2023/03/15 11:43:26;;;;;;;8.43;7.53;;;;;;;;;;5082647;28;20046;-77
2023/03/15 11:45:51;;;;;;;9.82;8.68;;;;;;;;;;5078594;28;20116;-76
2023/03/15 11:48:19;;;;;;;9.55;8.48;;;;;;;;;;5088107;28;20441;-76
2023/03/15 11:50:45;;;;;;;13.68;11.63;;;;;;;;;;5120406;27;20439;-76
2023/03/15 11:53:12;;;;;;;9.90;8.77;;;;;;;;;;5087215;28;20028;-76
2023/03/15 11:55:38;;;;;;;10.40;8.35;;;;;;;;;;5086141;28;20080;-77
2023/03/15 11:58:22;;;;;;;27.90;23.80;;;;;;;;;;5095744;27;20028;-76
2023/03/15 12:00:49;;;;;;;18.30;13.15;;;;;;;;;;5086334;28;20047;-77
2023/03/15 12:03:35;;;;;;;18.45;14.88;;;;;;;;;;5084874;28;20372;-77
2023/03/15 12:06:15;;;;;;;15.93;13.15;;;;;;;;;;5098061;28;20046;-77
2023/03/15 12:08:40;;;;;;;14.15;11.32;;;;;;;;;;5098883;28;21289;-74
2023/03/15 12:11:09;;;;;;;15.02;10.88;;;;;;;;;;5100544;28;20067;-76
2023/03/15 12:13:35;;;;;;;10.77;9.43;;;;;;;;;;5094813;28;20035;-76
2023/03/15 12:16:00;;;;;;;19.27;13.57;;;;;;;;;;5097140;28;20031;-77
2023/03/15 12:18:45;;;;;;;17.02;13.48;;;;;;;;;;5097696;28;20086;-77
2023/03/15 12:21:22;;;;;;;28.83;21.35;;;;;;;;;;5096210;28;20062;-76
2023/03/15 12:24:00;;;;;;;23.52;17.00;;;;;;;;;;5099978;28;20034;-78
2023/03/15 12:26:30;;;;;;;26.65;17.23;;;;;;;;;;5098348;28;20063;-77
2023/03/15 12:29:05;;;;;;;23.00;17.40;;;;;;;;;;5096772;28;20024;-77
2023/03/15 12:31:53;;;;;;;16.50;12.48;;;;;;;;;;5098443;28;20454;-78
2023/03/15 12:34:36;;;;;;;21.98;14.07;;;;;;;;;;5099094;28;20031;-76
2023/03/15 12:37:03;;;;;;;20.63;16.17;;;;;;;;;;5098174;28;20492;-76
2023/03/15 12:39:35;;;;;;;15.88;11.98;;;;;;;;;;5097503;28;20147;-76
2023/03/15 12:42:02;;;;;;;14.05;10.73;;;;;;;;;;5097115;28;20063;-77
2023/03/15 12:44:30;;;;;;;14.75;10.27;;;;;;;;;;5095614;28;20028;-77
2023/03/15 12:46:57;;;;;;;12.35;9.48;;;;;;;;;;5097926;28;20027;-77
2023/03/15 12:49:22;;;;;;;12.90;10.32;;;;;;;;;;5099758;28;20027;-78
2023/03/15 12:51:59;;;;;;;16.40;11.82;;;;;;;;;;5098411;28;20043;-76
2023/03/15 12:54:25;;;;;;;17.67;12.18;;;;;;;;;;5098837;28;20632;-76
2023/03/15 12:56:56;;;;;;;12.32;9.30;;;;;;;;;;5097691;28;20063;-78
2023/03/15 12:59:26;;;;;;;16.20;11.13;;;;;;;;;;5098979;28;20028;-78
2023/03/15 13:01:52;;;;;;;12.70;10.68;;;;;;;;;;5097841;28;20111;-78
2023/03/15 13:04:17;;;;;;;18.83;13.52;;;;;;;;;;5097659;28;20103;-77
2023/03/15 13:06:48;;;;;;;17.30;15.13;;;;;;;;;;5096725;28;20620;-77
2023/03/15 13:09:32;;;;;;;14.05;11.98;;;;;;;;;;5097729;28;20071;-77
2023/03/15 13:12:13;;;;;;;15.07;11.63;;;;;;;;;;5097754;28;20028;-77
2023/03/15 13:14:55;;;;;;;19.17;14.95;;;;;;;;;;5097064;28;20426;-78
2023/03/15 13:17:20;;;;;;;15.73;13.85;;;;;;;;;;5096558;28;20085;-77
2023/03/15 13:19:48;;;;;;;20.05;15.85;;;;;;;;;;5098703;28;20032;-76
2023/03/15 13:22:13;;;;;;;18.17;13.82;;;;;;;;;;5096449;28;20024;-76
2023/03/15 13:24:38;;;;;;;17.60;14.90;;;;;;;;;;5096983;28;20023;-76
2023/03/15 13:27:22;;;;;;;26.00;17.60;;;;;;;;;;5098803;28;20023;-77
2023/03/15 13:29:47;;;;;;;18.80;13.18;;;;;;;;;;5096985;28;20070;-77
2023/03/15 13:32:14;;;;;;;21.08;15.77;;;;;;;;;;5099588;28;20434;-77
2023/03/15 13:34:41;;;;;;;15.82;11.40;;;;;;;;;;5098801;28;20047;-76
2023/03/15 13:37:10;;;;;;;27.48;20.00;;;;;;;;;;5096985;28;20036;-76
2023/03/15 13:39:36;;;;;;;20.48;17.25;;;;;;;;;;5099609;28;20066;-77
2023/03/15 13:42:06;;;;;;;22.63;18.27;;;;;;;;;;5097224;28;20892;-77
2023/03/15 13:44:31;;;;;;;21.58;15.15;;;;;;;;;;5097069;28;20045;-78
2023/03/15 13:46:57;;;;;;;28.85;22.30;;;;;;;;;;5098988;28;20094;-77
2023/03/15 13:49:23;;;;;;;30.08;20.65;;;;;;;;;;5095957;28;20358;-77
2023/03/15 13:51:49;;;;;;;23.85;16.08;;;;;;;;;;5096615;28;20027;-77
2023/03/15 13:54:16;;;;;;;27.85;21.05;;;;;;;;;;5096724;28;20503;-77
2023/03/15 13:56:54;;;;;;;18.58;13.70;;;;;;;;;;5096131;28;20157;-78
2023/03/15 13:59:22;;;;;;;28.52;19.65;;;;;;;;;;5094075;28;20058;-78
2023/03/15 14:01:48;;;;;;;17.27;12.35;;;;;;;;;;5096831;28;20036;-76
2023/03/15 14:04:17;;;;;;;21.05;15.50;;;;;;;;;;5096081;28;20445;-77
2023/03/15 14:06:44;;;;;;;23.48;17.35;;;;;;;;;;5096488;28;20164;-77
2023/03/15 14:09:15;;;;;;;22.70;17.33;;;;;;;;;;5095300;28;20058;-77
2023/03/15 14:11:42;;;;;;;25.33;20.10;;;;;;;;;;5097832;28;20123;-77
2023/03/15 14:14:19;;;;;;;23.98;21.33;;;;;;;;;;5092581;28;20110;-77
2023/03/15 14:16:46;;;;;;;22.38;19.25;;;;;;;;;;5095483;28;20576;-76